Time;durP1;ratioP1;P1;durP2;ratioP2;P2;SDS_P1;SDS_P2;PMS_P1;PMS_P2;Temp;Humidity;BMP_temperature;BMP_pressure;BME280_temperature;BME280_humidity;BME280_pressure;Samples;Min_cycle;Max_cycle;Signal;HPM_P1;HPM_P2
2023/04/14 00:02:45;;;;;;;9.90;2.97;;;;;;;5.26;64.77;99220.59;10341044;28;20625;-61
2023/04/14 00:07:47;;;;;;;13.43;2.97;;;;;;;5.23;64.45;99226.78;10341726;28;20057;-61
2023/04/14 00:12:49;;;;;;;7.68;2.97;;;;;;;5.05;64.70;99225.09;10341508;28;20061;-59
2023/04/14 00:17:51;;;;;;;8.32;2.92;;;;;;;5.00;64.81;99219.31;10337991;28;20054;-59
2023/04/14 00:22:53;;;;;;;8.25;2.45;;;;;;;4.98;64.74;99217.69;10339502;28;20061;-59
2023/04/14 00:27:55;;;;;;;10.63;3.10;;;;;;;4.94;64.53;99219.59;10338108;28;20676;-59
2023/04/14 00:32:57;;;;;;;12.07;3.20;;;;;;;4.87;64.87;99227.72;10337803;28;20299;-59
2023/04/14 00:37:59;;;;;;;6.68;3.38;;;;;;;4.80;64.73;99226.34;10335806;28;20513;-59
2023/04/14 00:43:03;;;;;;;9.15;3.30;;;;;;;4.70;64.64;99242.31;10318763;28;20052;-59
2023/04/14 00:48:06;;;;;;;9.02;3.10;;;;;;;4.69;64.60;99240.63;10337477;28;20048;-59
2023/04/14 00:53:10;;;;;;;7.03;3.20;;;;;;;4.51;64.67;99251.00;10342154;28;20048;-59
2023/04/14 00:58:13;;;;;;;12.25;3.63;;;;;;;4.43;65.48;99253.13;10338363;28;20409;-59
2023/04/14 01:03:15;;;;;;;8.27;3.10;;;;;;;4.40;65.64;99251.50;10315865;28;20038;-59
2023/04/14 01:08:18;;;;;;;7.10;3.40;;;;;;;4.43;65.13;99253.13;10336413;28;20049;-59
2023/04/14 01:13:35;;;;;;;8.02;3.45;;;;;;;4.31;65.70;99257.06;10335058;28;20038;-59
2023/04/14 01:19:05;;;;;;;33.47;4.50;;;;;;;4.36;65.21;99246.53;10331364;28;20053;-59
2023/04/14 01:24:26;;;;;;;73.57;4.78;;;;;;;4.33;65.45;99257.84;10334198;28;20049;-59
2023/04/14 01:29:34;;;;;;;150.87;6.27;;;;;;;4.31;65.53;99251.91;10336843;28;20045;-59
2023/04/14 01:34:54;;;;;;;282.95;8.57;;;;;;;4.35;65.47;99245.66;10336514;28;20069;-61
2023/04/14 01:40:01;;;;;;;59.78;4.18;;;;;;;4.29;65.37;99245.13;10351271;28;20050;-61
2023/04/14 01:45:14;;;;;;;21.50;4.18;;;;;;;4.25;65.31;99228.88;10334155;28;20127;-59
2023/04/14 01:50:20;;;;;;;17.70;4.20;;;;;;;4.19;65.07;99241.28;10334166;28;20026;-59
2023/04/14 01:55:27;;;;;;;91.47;6.57;;;;;;;4.13;64.99;99255.31;10349580;28;20149;-59
2023/04/14 02:00:32;;;;;;;43.75;3.97;;;;;;;4.06;65.08;99251.31;10331866;28;20054;-59
2023/04/14 02:05:38;;;;;;;97.47;5.15;;;;;;;4.05;65.24;99252.22;10339351;28;20116;-59
2023/04/14 02:10:44;;;;;;;89.75;4.78;;;;;;;3.94;65.64;99253.59;10338277;28;20045;-59
2023/04/14 02:15:49;;;;;;;100.20;4.97;;;;;;;3.84;65.76;99261.75;10356697;28;20429;-59
2023/04/14 02:20:56;;;;;;;72.53;4.35;;;;;;;3.89;65.82;99266.72;10345163;28;20045;-59
2023/04/14 02:26:12;;;;;;;77.47;4.50;;;;;;;3.77;65.93;99267.22;10344077;28;20056;-59
2023/04/14 02:31:20;;;;;;;107.07;4.55;;;;;;;3.71;65.84;99275.25;10351573;28;20227;-61
2023/04/14 02:36:38;;;;;;;47.85;3.78;;;;;;;3.73;65.64;99279.47;10344169;28;20252;-61
2023/04/14 02:41:42;;;;;;;122.03;5.25;;;;;;;3.73;65.48;99287.22;10346585;28;20050;-61
2023/04/14 02:47:02;;;;;;;88.47;4.05;;;;;;;3.61;65.57;99292.91;10346116;28;20072;-61
2023/04/14 02:52:10;;;;;;;39.55;3.33;;;;;;;3.52;65.61;99305.34;10347287;28;20450;-61
2023/04/14 02:57:13;;;;;;;81.82;4.05;;;;;;;3.41;65.72;99312.72;10350987;28;20139;-61
2023/04/14 03:02:19;;;;;;;133.10;4.57;;;;;;;3.45;65.68;99309.94;10345046;28;21060;-61
2023/04/14 03:07:30;;;;;;;132.60;4.55;;;;;;;3.36;65.77;99317.22;10340871;28;20058;-61
2023/04/14 03:12:34;;;;;;;41.60;3.10;;;;;;;3.40;66.04;99316.19;10337817;28;20046;-61
2023/04/14 03:17:38;;;;;;;39.50;3.03;;;;;;;3.47;66.01;99312.47;10336048;28;20193;-61
2023/04/14 03:22:43;;;;;;;37.15;3.92;;;;;;;3.53;65.84;99304.47;10332066;28;20145;-61
2023/04/14 03:27:49;;;;;;;32.25;3.05;;;;;;;3.46;65.77;99293.53;10335239;28;20184;-61
2023/04/14 03:32:53;;;;;;;8.43;2.40;;;;;;;3.47;65.86;99302.13;10340867;28;20054;-61
2023/04/14 03:37:58;;;;;;;8.43;2.70;;;;;;;3.55;65.50;99305.25;10342337;28;20046;-61
2023/04/14 03:43:04;;;;;;;4.68;2.20;;;;;;;3.56;65.51;99299.16;10322012;28;20042;-59
2023/04/14 03:48:11;;;;;;;4.88;2.50;;;;;;;3.45;65.52;99299.63;10337672;28;20417;-59
2023/04/14 03:53:20;;;;;;;5.43;2.53;;;;;;;3.16;65.66;99289.59;10337515;28;20365;-59
2023/04/14 03:58:24;;;;;;;4.82;2.65;;;;;;;3.11;66.22;99288.13;10338226;28;20425;-59
2023/04/14 04:03:28;;;;;;;5.25;2.30;;;;;;;3.10;65.98;99292.44;10346203;28;20046;-59
2023/04/14 04:08:34;;;;;;;4.95;3.00;;;;;;;3.14;65.84;99295.72;10340644;28;20030;-59
2023/04/14 04:13:38;;;;;;;6.82;2.70;;;;;;;2.94;65.93;99309.44;10337610;28;20056;-59
2023/04/14 04:18:47;;;;;;;6.45;2.70;;;;;;;2.88;65.92;99307.09;10333746;28;20058;-59
2023/04/14 04:23:54;;;;;;;5.80;2.53;;;;;;;2.89;65.62;99306.16;10336420;28;20042;-58
2023/04/14 04:28:59;;;;;;;7.13;2.65;;;;;;;2.88;65.61;99310.53;10337737;28;20120;-60
2023/04/14 04:34:04;;;;;;;5.00;2.42;;;;;;;2.88;65.49;99320.84;10337184;28;20049;-59
2023/04/14 04:39:10;;;;;;;9.40;3.88;;;;;;;2.76;65.46;99317.88;10356376;28;20762;-59
2023/04/14 04:44:15;;;;;;;8.57;3.25;;;;;;;2.79;66.00;99326.34;10346302;28;20521;-59
2023/04/14 04:49:18;;;;;;;63.13;17.33;;;;;;;2.91;66.05;99337.94;10336711;28;20038;-60
2023/04/14 04:54:20;;;;;;;111.68;14.00;;;;;;;3.03;65.91;99333.16;10332181;28;20754;-59
2023/04/14 04:59:22;;;;;;;507.42;13.98;;;;;;;3.02;65.92;99334.06;10337925;28;21118;-60
2023/04/14 05:04:24;;;;;;;468.55;17.88;;;;;;;3.12;65.82;99331.97;10337373;28;20490;-60
2023/04/14 05:09:26;;;;;;;90.90;6.47;;;;;;;3.21;65.62;99331.63;10341858;28;20049;-62
2023/04/14 05:14:28;;;;;;;42.58;5.75;;;;;;;3.33;65.53;99331.13;10345645;28;20148;-61
2023/04/14 05:19:30;;;;;;;159.32;6.20;;;;;;;3.46;65.38;99339.22;10335971;28;20041;-61
2023/04/14 05:24:31;;;;;;;319.10;8.88;;;;;;;3.58;64.91;99333.53;10337792;28;21295;-61
2023/04/14 05:29:33;;;;;;;176.55;7.00;;;;;;;3.77;64.48;99326.72;10337888;28;20042;-61
2023/04/14 05:34:35;;;;;;;51.22;6.50;;;;;;;3.88;64.21;99338.31;10337013;28;20060;-61
2023/04/14 05:39:37;;;;;;;57.88;4.25;;;;;;;3.76;64.37;99348.31;10337150;28;20136;-61
2023/04/14 05:44:39;;;;;;;94.30;4.45;;;;;;;3.86;64.13;99344.47;10340349;28;20042;-61
2023/04/14 05:49:41;;;;;;;64.75;4.13;;;;;;;3.90;63.75;99342.59;10349754;28;20046;-61
2023/04/14 05:54:42;;;;;;;14.35;3.47;;;;;;;4.08;63.69;99352.16;10337854;28;20050;-62
2023/04/14 05:59:44;;;;;;;193.48;7.57;;;;;;;4.26;63.22;99353.97;10343831;28;20049;-62
2023/04/14 06:04:46;;;;;;;72.32;4.90;;;;;;;4.51;63.22;99360.59;10346535;28;20038;-62
2023/04/14 06:09:49;;;;;;;104.00;4.63;;;;;;;4.66;62.85;99349.53;10341461;28;20417;-62
2023/04/14 06:14:51;;;;;;;440.90;13.32;;;;;;;4.81;61.90;99353.19;10336791;28;20050;-62
2023/04/14 06:19:52;;;;;;;137.50;5.97;;;;;;;5.13;61.73;99349.97;10343514;28;20053;-62
2023/04/14 06:24:57;;;;;;;34.00;3.78;;;;;;;5.27;61.31;99347.56;10378871;28;20049;-62
2023/04/14 06:29:59;;;;;;;26.73;3.80;;;;;;;5.68;60.42;99345.56;10356652;28;20205;-62
2023/04/14 06:35:03;;;;;;;18.90;3.67;;;;;;;6.03;60.00;99329.06;10372473;28;20669;-62
2023/04/14 06:40:06;;;;;;;10.07;3.38;;;;;;;6.49;59.21;99326.75;10353194;28;20067;-62
2023/04/14 06:45:08;;;;;;;7.90;3.35;;;;;;;6.63;58.87;99322.50;10342151;28;20119;-62
2023/04/14 06:50:11;;;;;;;28.38;8.60;;;;;;;6.51;58.59;99317.91;10347651;28;20037;-62
2023/04/14 06:55:13;;;;;;;25.52;8.90;;;;;;;6.59;58.13;99310.59;10347726;28;20506;-62
2023/04/14 07:00:15;;;;;;;36.30;8.88;;;;;;;6.05;58.85;99319.47;10335406;28;20046;-62
2023/04/14 07:05:17;;;;;;;20.75;6.38;;;;;;;6.01;58.89;99314.50;10353360;28;20780;-62
2023/04/14 07:10:19;;;;;;;14.57;5.30;;;;;;;5.88;59.16;99319.47;10361867;28;20046;-60
2023/04/14 07:15:20;;;;;;;13.50;5.03;;;;;;;5.89;59.44;99321.16;10371337;28;20075;-60
2023/04/14 07:20:22;;;;;;;12.88;4.97;;;;;;;6.00;59.73;99320.63;10374058;28;20050;-60
2023/04/14 07:25:24;;;;;;;10.80;3.92;;;;;;;6.01;60.33;99320.53;10341789;28;20042;-60
2023/04/14 07:30:26;;;;;;;10.38;4.28;;;;;;;5.90;60.96;99322.81;10332326;28;20053;-62
2023/04/14 07:35:28;;;;;;;8.82;3.80;;;;;;;6.00;61.43;99321.44;10359710;28;20053;-62
2023/04/14 07:40:29;;;;;;;9.40;3.60;;;;;;;6.68;60.84;99312.69;10359477;28;20056;-62
2023/04/14 07:45:31;;;;;;;8.00;4.07;;;;;;;7.68;58.99;99307.03;10343321;28;20704;-62
2023/04/14 07:50:33;;;;;;;8.30;4.05;;;;;;;8.23;57.89;99305.50;10348956;28;20052;-62
2023/04/14 07:55:35;;;;;;;15.10;4.72;;;;;;;8.77;56.26;99301.31;10343621;28;20053;-62
2023/04/14 08:00:37;;;;;;;7.72;3.83;;;;;;;9.30;56.05;99303.13;10340559;28;20038;-62
2023/04/14 08:05:40;;;;;;;10.73;3.50;;;;;;;9.76;54.72;99298.38;10343314;28;20153;-62
2023/04/14 08:10:42;;;;;;;8.95;3.63;;;;;;;10.45;53.27;99293.59;10344024;28;20414;-62
2023/04/14 08:15:44;;;;;;;11.02;4.07;;;;;;;10.71;52.24;99295.22;10353220;28;20515;-60
2023/04/14 08:20:46;;;;;;;10.90;3.97;;;;;;;10.91;52.25;99286.00;10379649;28;20052;-60
2023/04/14 08:25:48;;;;;;;10.38;3.58;;;;;;;10.93;51.58;99279.69;10365121;28;20056;-60
2023/04/14 08:30:50;;;;;;;7.30;3.60;;;;;;;11.11;51.25;99288.84;10343853;28;20160;-60
2023/04/14 08:35:51;;;;;;;7.32;3.38;;;;;;;11.20;50.64;99282.97;10355715;28;20077;-60
2023/04/14 08:41:06;;;;;;;7.40;3.30;;;;;;;11.44;50.15;99275.09;10354996;28;20052;-62
2023/04/14 08:46:12;;;;;;;11.48;4.28;;;;;;;11.81;48.84;99273.19;10362667;28;20135;-62
2023/04/14 08:51:33;;;;;;;9.45;3.75;;;;;;;11.92;48.80;99268.00;10360020;28;20045;-60
2023/04/14 08:56:41;;;;;;;10.75;3.90;;;;;;;12.08;48.43;99258.03;10368643;28;20164;-60
2023/04/14 09:01:44;;;;;;;12.65;3.47;;;;;;;12.37;48.21;99248.78;10362501;28;20057;-60
2023/04/14 09:06:47;;;;;;;8.32;3.70;;;;;;;12.59;47.90;99255.81;10377413;28;20119;-60
2023/04/14 09:11:50;;;;;;;8.90;3.67;;;;;;;12.82;46.73;99252.19;10344046;28;20176;-61
2023/04/14 09:16:53;;;;;;;6.68;3.10;;;;;;;12.91;46.00;99251.44;10361907;28;20466;-62
2023/04/14 09:21:55;;;;;;;10.23;3.50;;;;;;;13.26;45.21;99244.19;10360514;28;20148;-62
2023/04/14 09:26:57;;;;;;;9.68;3.80;;;;;;;13.27;44.86;99235.34;10369839;28;20050;-60
2023/04/14 09:31:59;;;;;;;11.05;3.53;;;;;;;13.05;44.44;99234.63;10344658;28;20056;-60
2023/04/14 09:37:05;;;;;;;10.90;3.58;;;;;;;13.45;43.89;99220.75;10370886;28;20060;-60
2023/04/14 09:42:07;;;;;;;10.75;4.07;;;;;;;13.49;43.65;99216.09;10367744;28;20077;-60
2023/04/14 09:47:09;;;;;;;10.27;3.55;;;;;;;13.77;43.87;99216.28;10366141;28;20069;-60
2023/04/14 09:52:11;;;;;;;8.38;2.85;;;;;;;13.76;41.87;99217.22;10354216;28;20064;-60
2023/04/14 09:57:23;;;;;;;7.07;3.05;;;;;;;13.89;40.65;99213.56;10340311;28;20391;-60
2023/04/14 10:02:25;;;;;;;12.60;3.70;;;;;;;13.75;42.30;99201.59;10359592;28;20391;-60
2023/04/14 10:07:27;;;;;;;9.98;3.22;;;;;;;13.38;42.00;99201.16;10363528;28;20045;-60
2023/04/14 10:12:30;;;;;;;7.57;3.00;;;;;;;13.51;41.68;99198.41;10342680;28;20469;-60
2023/04/14 10:17:32;;;;;;;11.68;3.13;;;;;;;13.45;42.34;99180.53;10360201;28;20049;-60
2023/04/14 10:22:35;;;;;;;9.52;3.17;;;;;;;13.51;41.14;99172.97;10344346;28;20045;-60
2023/04/14 10:27:37;;;;;;;12.05;2.85;;;;;;;13.74;41.80;99165.75;10344993;28;20449;-60
2023/04/14 10:32:41;;;;;;;10.88;2.97;;;;;;;13.87;42.21;99158.50;10340518;28;20049;-60
2023/04/14 10:37:50;;;;;;;9.45;2.75;;;;;;;13.94;39.80;99157.03;10339697;28;20108;-60
2023/04/14 10:42:56;;;;;;;8.00;2.42;;;;;;;14.12;41.46;99142.31;10349841;28;20046;-60
2023/04/14 10:47:58;;;;;;;8.20;2.65;;;;;;;13.89;40.79;99143.44;10347845;28;20088;-60
2023/04/14 10:53:05;;;;;;;10.40;3.17;;;;;;;13.90;41.22;99137.22;10367729;28;20069;-60
2023/04/14 10:58:07;;;;;;;8.20;2.55;;;;;;;14.11;41.48;99127.47;10356919;28;20054;-60
2023/04/14 11:03:11;;;;;;;8.38;2.75;;;;;;;13.86;39.24;99130.53;10337199;28;20060;-60
2023/04/14 11:08:17;;;;;;;9.48;2.60;;;;;;;13.43;40.56;99124.66;10336127;28;20045;-60
2023/04/14 11:13:19;;;;;;;8.48;2.53;;;;;;;13.30;39.51;99123.97;10344966;28;20533;-60
2023/04/14 11:18:42;;;;;;;7.00;2.40;;;;;;;13.78;39.42;99111.97;10353407;28;20080;-60
2023/04/14 11:23:47;;;;;;;7.03;2.50;;;;;;;14.09;38.50;99099.63;10336819;28;20041;-60
2023/04/14 11:28:52;;;;;;;8.15;2.25;;;;;;;13.95;39.10;99102.63;10356959;28;20061;-60
2023/04/14 11:33:54;;;;;;;7.60;2.40;;;;;;;14.12;39.84;99094.97;10344435;28;20046;-60
2023/04/14 11:38:58;;;;;;;11.75;2.45;;;;;;;14.55;39.35;99089.41;10351152;28;20140;-60
2023/04/14 11:44:00;;;;;;;8.85;2.58;;;;;;;14.79;38.69;99083.72;10352573;28;20045;-59
2023/04/14 11:49:03;;;;;;;9.32;2.45;;;;;;;14.90;36.84;99079.16;10349063;28;20099;-60
2023/04/14 11:54:05;;;;;;;7.70;2.40;;;;;;;14.54;37.13;99074.56;10357953;28;20077;-60
2023/04/14 11:59:07;;;;;;;8.70;2.28;;;;;;;15.13;36.47;99069.16;10337446;28;20049;-60
2023/04/14 12:04:11;;;;;;;7.60;2.38;;;;;;;14.88;36.17;99060.03;10348063;28;20164;-60
2023/04/14 12:09:13;;;;;;;7.57;2.25;;;;;;;14.71;37.12;99055.47;10348047;28;20088;-60
2023/04/14 12:14:15;;;;;;;7.22;2.00;;;;;;;14.52;37.87;99060.72;10340119;28;20521;-60
2023/04/14 12:19:16;;;;;;;7.40;2.05;;;;;;;14.64;37.45;99058.78;10348574;28;20045;-60
2023/04/14 12:24:18;;;;;;;8.65;2.13;;;;;;;14.69;37.31;99057.41;10338648;28;20496;-60
2023/04/14 12:29:21;;;;;;;7.75;2.15;;;;;;;15.04;37.17;99056.84;10346031;28;20145;-60
2023/04/14 12:34:27;;;;;;;4.70;1.75;;;;;;;15.40;36.30;99058.69;10341666;28;20057;-60
2023/04/14 12:39:29;;;;;;;7.22;2.08;;;;;;;15.55;36.03;99036.19;10342923;28;20042;-60
2023/04/14 12:44:32;;;;;;;5.85;2.10;;;;;;;15.70;35.22;99032.13;10349464;28;20691;-60
2023/04/14 12:49:37;;;;;;;6.80;1.80;;;;;;;15.76;35.26;99038.63;10354716;28;20038;-60
2023/04/14 12:54:50;;;;;;;5.90;1.73;;;;;;;15.44;35.26;99033.72;10356946;28;20049;-60
2023/04/14 12:59:53;;;;;;;8.07;2.22;;;;;;;15.37;35.52;99027.34;10347307;28;20056;-60
2023/04/14 13:04:56;;;;;;;9.55;2.25;;;;;;;15.16;36.17;99024.09;10344419;28;20052;-60
2023/04/14 13:09:58;;;;;;;9.18;2.20;;;;;;;15.00;35.79;99019.41;10341543;28;21375;-60
2023/04/14 13:15:00;;;;;;;9.18;1.85;;;;;;;14.98;35.37;99004.75;10342598;28;20041;-60
2023/04/14 13:20:02;;;;;;;9.20;2.17;;;;;;;15.25;35.75;99010.91;10343834;28;20049;-60
2023/04/14 13:25:04;;;;;;;5.78;1.80;;;;;;;15.58;35.00;98995.56;10342215;28;20873;-60
2023/04/14 13:30:07;;;;;;;7.20;2.00;;;;;;;15.19;35.25;98994.84;10343067;28;20257;-60
2023/04/14 13:35:09;;;;;;;6.53;2.00;;;;;;;14.97;34.65;98993.38;10333722;28;20470;-60
2023/04/14 13:40:11;;;;;;;7.60;2.30;;;;;;;14.82;34.42;98991.34;10342137;28;20060;-60
2023/04/14 13:45:12;;;;;;;6.45;2.00;;;;;;;14.46;36.15;98980.53;10353817;28;20040;-60
2023/04/14 13:50:16;;;;;;;7.30;2.40;;;;;;;14.43;37.08;98987.88;10357027;28;20535;-59
2023/04/14 13:55:18;;;;;;;9.15;2.13;;;;;;;14.35;37.63;98982.47;10370763;28;20284;-60
2023/04/14 14:00:20;;;;;;;6.05;1.77;;;;;;;14.18;38.30;98983.97;10339855;28;20041;-60
2023/04/14 14:05:22;;;;;;;7.40;2.10;;;;;;;14.21;38.70;98978.44;10343588;28;20061;-60
2023/04/14 14:10:24;;;;;;;12.02;2.17;;;;;;;14.21;39.48;98970.53;10335632;28;20494;-60
2023/04/14 14:15:26;;;;;;;6.28;1.90;;;;;;;14.51;39.35;98967.81;10348089;28;20054;-59
2023/04/14 14:20:28;;;;;;;8.07;2.28;;;;;;;14.61;39.04;98969.59;10343856;28;20184;-60
2023/04/14 14:25:30;;;;;;;6.53;2.13;;;;;;;14.41;38.08;98964.31;10347532;28;20049;-60
2023/04/14 14:30:31;;;;;;;7.68;2.17;;;;;;;14.38;36.49;98959.34;10353490;28;20125;-60
2023/04/14 14:35:33;;;;;;;7.88;2.00;;;;;;;14.50;36.34;98944.28;10335101;28;20045;-59
2023/04/14 14:40:35;;;;;;;6.82;2.10;;;;;;;14.73;34.94;98939.53;10346263;28;20145;-60
2023/04/14 14:45:37;;;;;;;7.20;2.33;;;;;;;14.62;34.69;98931.78;10340779;28;20053;-60
2023/04/14 14:50:39;;;;;;;6.22;2.00;;;;;;;14.81;35.29;98932.59;10342460;28;20643;-60
2023/04/14 14:55:41;;;;;;;5.55;1.98;;;;;;;14.96;34.15;98923.25;10340633;28;20046;-60
2023/04/14 15:00:42;;;;;;;5.95;1.80;;;;;;;15.03;33.34;98921.72;10347781;28;20049;-60
2023/04/14 15:05:45;;;;;;;5.82;2.00;;;;;;;15.16;33.30;98918.75;10343411;28;20191;-60
2023/04/14 15:10:47;;;;;;;5.93;1.70;;;;;;;15.38;33.50;98916.59;10344939;28;20042;-60
2023/04/14 15:15:49;;;;;;;7.18;2.30;;;;;;;15.32;33.51;98903.16;10346223;28;20042;-60
2023/04/14 15:20:53;;;;;;;7.35;2.10;;;;;;;15.43;32.60;98908.22;10342387;28;20112;-60
2023/04/14 15:25:55;;;;;;;7.90;2.22;;;;;;;15.33;33.61;98908.28;10340685;28;20127;-60
2023/04/14 15:30:57;;;;;;;6.40;1.95;;;;;;;15.65;33.34;98917.56;10341302;28;20422;-60
2023/04/14 15:35:59;;;;;;;7.97;1.90;;;;;;;15.66;32.22;98921.84;10339069;28;20854;-60
2023/04/14 15:41:00;;;;;;;7.05;1.90;;;;;;;15.52;32.23;98914.44;10340989;28;20068;-60
2023/04/14 15:46:02;;;;;;;8.45;2.00;;;;;;;14.98;31.39;98915.22;10350423;28;20052;-60
2023/04/14 15:51:05;;;;;;;9.13;2.28;;;;;;;14.75;31.88;98913.91;10349677;28;20203;-60
2023/04/14 15:56:06;;;;;;;8.75;1.92;;;;;;;14.98;31.63;98910.78;10341821;28;20048;-59
2023/04/14 16:01:08;;;;;;;7.57;1.98;;;;;;;14.90;31.34;98907.22;10344768;28;20517;-60
2023/04/14 16:06:10;;;;;;;7.90;1.92;;;;;;;14.73;32.44;98905.31;10336199;28;20053;-60
2023/04/14 16:11:15;;;;;;;6.30;2.13;;;;;;;14.72;33.59;98909.75;10338595;28;20131;-60
2023/04/14 16:16:17;;;;;;;7.15;1.80;;;;;;;14.74;33.42;98906.97;10338614;28;20038;-60
2023/04/14 16:21:19;;;;;;;5.90;1.92;;;;;;;14.53;32.35;98912.44;10351003;28;20045;-60
2023/04/14 16:26:22;;;;;;;6.50;2.13;;;;;;;14.41;31.45;98916.97;10351716;28;20054;-59
2023/04/14 16:31:24;;;;;;;6.05;1.73;;;;;;;14.48;33.43;98915.44;10347008;28;20045;-60
2023/04/14 16:36:26;;;;;;;9.27;2.10;;;;;;;14.57;33.68;98916.44;10342956;28;20081;-60
2023/04/14 16:41:28;;;;;;;7.05;1.80;;;;;;;14.73;32.28;98911.41;10343615;28;20069;-60
2023/04/14 16:46:30;;;;;;;5.40;1.80;;;;;;;14.72;31.64;98915.00;10342029;28;20051;-60
2023/04/14 16:51:32;;;;;;;6.50;1.83;;;;;;;14.89;31.35;98911.66;10354566;28;20053;-60
2023/04/14 16:56:34;;;;;;;7.05;1.73;;;;;;;15.12;33.02;98912.94;10341133;28;20056;-60
2023/04/14 17:01:39;;;;;;;6.00;2.00;;;;;;;14.74;33.48;98906.97;10353080;28;20139;-60
2023/04/14 17:06:41;;;;;;;5.43;1.98;;;;;;;14.54;33.80;98909.66;10355683;28;20046;-60
2023/04/14 17:11:43;;;;;;;7.60;1.80;;;;;;;14.42;34.31;98902.84;10349720;28;20616;-60
2023/04/14 17:16:45;;;;;;;6.18;1.75;;;;;;;14.32;35.45;98903.84;10355054;28;20056;-61
2023/04/14 17:21:48;;;;;;;5.80;1.92;;;;;;;14.34;34.67;98913.25;10367890;28;20549;-60
2023/04/14 17:26:54;;;;;;;6.72;1.75;;;;;;;14.17;33.25;98911.31;10348311;28;20275;-61
2023/04/14 17:31:56;;;;;;;7.90;1.88;;;;;;;13.90;34.02;98913.81;10350825;28;20052;-60
2023/04/14 17:36:58;;;;;;;7.70;2.05;;;;;;;13.69;36.31;98918.34;10348009;28;20486;-61
2023/04/14 17:42:00;;;;;;;5.82;1.80;;;;;;;13.48;35.42;98921.03;10355986;28;20056;-60
2023/04/14 17:47:11;;;;;;;6.82;1.90;;;;;;;13.38;36.15;98922.78;10348059;28;20050;-61
2023/04/14 17:52:15;;;;;;;6.80;2.38;;;;;;;13.24;36.15;98935.44;10348289;28;20756;-61
2023/04/14 17:57:17;;;;;;;5.15;1.83;;;;;;;13.07;37.47;98931.63;10348992;28;20058;-61
2023/04/14 18:02:19;;;;;;;7.80;2.00;;;;;;;12.91;37.20;98939.16;10349813;28;20057;-61
2023/04/14 18:07:21;;;;;;;6.32;1.98;;;;;;;12.68;38.97;98940.28;10347587;28;20144;-61
2023/04/14 18:12:23;;;;;;;7.97;2.50;;;;;;;12.38;39.89;98941.03;10343875;28;20388;-61
2023/04/14 18:17:25;;;;;;;8.50;2.63;;;;;;;12.17;40.44;98944.56;10353874;28;20057;-61
2023/04/14 18:22:27;;;;;;;7.32;2.90;;;;;;;11.97;41.47;98948.78;10352765;28;20184;-61
2023/04/14 18:27:29;;;;;;;7.72;2.50;;;;;;;11.66;40.95;98952.22;10348032;28;20584;-61
2023/04/14 18:32:33;;;;;;;7.90;3.05;;;;;;;11.48;40.78;98949.25;10344928;28;20354;-61
2023/04/14 18:37:37;;;;;;;7.20;3.40;;;;;;;11.23;41.68;98952.94;10353021;28;20168;-61
2023/04/14 18:42:39;;;;;;;8.95;3.40;;;;;;;10.94;42.75;98967.44;10363079;28;20058;-61
2023/04/14 18:47:41;;;;;;;10.13;4.40;;;;;;;10.69;43.24;98972.00;10361244;28;20771;-61
2023/04/14 18:52:43;;;;;;;13.30;4.50;;;;;;;10.58;44.78;98974.59;10352262;28;20395;-60
2023/04/14 18:57:45;;;;;;;12.00;6.22;;;;;;;10.39;45.28;98969.91;10352846;28;20042;-61
2023/04/14 19:02:47;;;;;;;12.80;4.70;;;;;;;10.29;46.77;98976.75;10355343;28;20062;-61
2023/04/14 19:07:49;;;;;;;12.07;4.53;;;;;;;10.19;47.31;98986.22;10352814;28;20089;-61
2023/04/14 19:12:51;;;;;;;10.00;3.97;;;;;;;10.04;47.79;98988.16;10341424;28;20034;-61
2023/04/14 19:17:54;;;;;;;10.88;4.80;;;;;;;9.88;47.83;98986.75;10359544;28;20050;-61
2023/04/14 19:22:57;;;;;;;13.68;5.97;;;;;;;9.66;48.27;98995.31;10344859;28;20049;-61
2023/04/14 19:28:00;;;;;;;7.90;4.07;;;;;;;9.48;48.52;99007.81;10347465;28;20216;-61
2023/04/14 19:33:02;;;;;;;10.18;4.35;;;;;;;9.42;48.82;99002.22;10356142;28;20395;-61
2023/04/14 19:38:04;;;;;;;8.90;3.78;;;;;;;9.32;49.26;99002.00;10373153;28;20060;-61
2023/04/14 19:43:07;;;;;;;11.10;3.97;;;;;;;9.20;49.56;99009.88;10343237;28;20064;-61
2023/04/14 19:48:09;;;;;;;20.40;8.85;;;;;;;8.96;49.44;99016.72;10390533;28;20435;-61
2023/04/14 19:53:18;;;;;;;16.05;8.25;;;;;;;8.61;50.29;99011.25;10354227;28;20077;-61
2023/04/14 19:58:21;;;;;;;13.65;5.65;;;;;;;8.55;50.76;99009.06;10358355;28;20049;-61
2023/04/14 20:03:24;;;;;;;10.48;4.97;;;;;;;8.44;51.11;99011.56;10341513;28;20041;-61
2023/04/14 20:08:26;;;;;;;12.52;4.45;;;;;;;8.33;51.20;99016.59;10335371;28;20422;-61
2023/04/14 20:13:30;;;;;;;10.90;3.53;;;;;;;8.30;51.64;99014.22;10339413;28;20049;-61
2023/04/14 20:18:32;;;;;;;10.40;3.78;;;;;;;8.23;51.65;99023.34;10334277;28;20045;-61
2023/04/14 20:23:34;;;;;;;10.23;4.22;;;;;;;8.13;52.12;99022.28;10339767;28;20609;-61
2023/04/14 20:28:36;;;;;;;7.75;3.97;;;;;;;7.95;52.53;99021.66;10341191;28;20056;-61
2023/04/14 20:33:38;;;;;;;13.43;4.30;;;;;;;7.83;52.98;99022.44;10341965;28;20950;-61
2023/04/14 20:38:40;;;;;;;9.00;3.40;;;;;;;7.77;52.61;99021.03;10336880;28;20042;-61
2023/04/14 20:43:42;;;;;;;9.77;2.85;;;;;;;7.33;53.63;99035.94;10341114;28;20048;-61
2023/04/14 20:48:44;;;;;;;11.65;3.35;;;;;;;7.36;53.88;99030.56;10338304;28;20077;-61
2023/04/14 20:53:45;;;;;;;9.60;3.88;;;;;;;7.37;53.72;99032.22;10341240;28;20456;-61
2023/04/14 20:58:48;;;;;;;7.20;3.67;;;;;;;7.30;54.01;99036.16;10339995;28;20513;-61
2023/04/14 21:03:50;;;;;;;8.52;3.42;;;;;;;7.25;54.18;99037.34;10347805;28;20048;-61
2023/04/14 21:08:52;;;;;;;8.48;3.55;;;;;;;7.18;54.41;99034.28;10340487;28;20140;-61
2023/04/14 21:13:54;;;;;;;10.55;4.30;;;;;;;7.11;54.58;99026.00;10343476;28;20339;-61
2023/04/14 21:19:16;;;;;;;8.90;3.85;;;;;;;6.78;55.01;99038.41;10333487;28;20053;-61
2023/04/14 21:24:18;;;;;;;8.95;3.25;;;;;;;6.65;55.63;99034.00;10336470;28;20149;-60
2023/04/14 21:29:19;;;;;;;11.52;3.83;;;;;;;6.76;55.52;99042.00;10343314;28;20050;-60
2023/04/14 21:34:22;;;;;;;11.40;4.20;;;;;;;6.76;55.89;99034.22;10334087;28;20045;-60
2023/04/14 21:39:27;;;;;;;8.75;3.30;;;;;;;6.73;55.62;99034.41;10335786;28;20064;-60
2023/04/14 21:44:29;;;;;;;11.68;3.30;;;;;;;6.60;55.73;99047.25;10344489;28;20146;-60
2023/04/14 21:49:30;;;;;;;7.57;3.47;;;;;;;6.52;55.89;99051.22;10349345;28;20038;-60
2023/04/14 21:54:33;;;;;;;7.90;3.22;;;;;;;6.49;56.06;99051.41;10379341;28;20064;-60
2023/04/14 21:59:36;;;;;;;10.23;3.50;;;;;;;6.37;56.29;99041.72;10340367;28;20572;-60
2023/04/14 22:04:38;;;;;;;9.85;3.22;;;;;;;6.19;56.55;99038.34;10339068;28;20076;-60
2023/04/14 22:09:40;;;;;;;9.13;3.05;;;;;;;6.13;56.45;99041.28;10344005;28;20096;-60
2023/04/14 22:14:45;;;;;;;7.50;2.90;;;;;;;6.02;56.58;99046.25;10341295;28;20058;-60
2023/04/14 22:19:47;;;;;;;12.35;3.30;;;;;;;5.93;56.85;99052.78;10337418;28;20045;-60
2023/04/14 22:24:50;;;;;;;8.13;3.03;;;;;;;5.89;57.04;99061.66;10338504;28;20069;-60
2023/04/14 22:29:52;;;;;;;11.60;3.95;;;;;;;5.80;57.22;99056.13;10337308;28;20072;-60
2023/04/14 22:34:54;;;;;;;7.18;3.30;;;;;;;5.61;57.50;99064.06;10351694;28;20510;-60
2023/04/14 22:39:56;;;;;;;8.02;3.00;;;;;;;5.53;57.96;99074.00;10345659;28;20049;-59
2023/04/14 22:44:58;;;;;;;9.43;3.50;;;;;;;5.55;57.77;99072.16;10344492;28;20140;-60
2023/04/14 22:50:00;;;;;;;7.32;2.90;;;;;;;5.44;58.02;99075.31;10346254;28;20208;-60
2023/04/14 22:55:02;;;;;;;8.05;3.55;;;;;;;5.38;58.17;99074.81;10343082;28;20282;-60
2023/04/14 23:00:07;;;;;;;9.23;3.50;;;;;;;5.34;58.28;99075.88;10343577;28;20053;-60
2023/04/14 23:05:11;;;;;;;8.15;2.92;;;;;;;5.34;58.33;99081.06;10349863;28;20096;-60
2023/04/14 23:10:14;;;;;;;9.07;3.25;;;;;;;5.24;58.51;99079.88;10343605;28;20584;-60
2023/04/14 23:15:16;;;;;;;8.40;3.05;;;;;;;5.17;58.79;99078.50;10342066;28;20058;-60
2023/04/14 23:20:18;;;;;;;7.55;3.17;;;;;;;5.15;58.62;99085.50;10342622;28;20803;-60
2023/04/14 23:25:19;;;;;;;7.85;3.55;;;;;;;4.94;58.78;99086.63;10340971;28;20041;-60
2023/04/14 23:30:21;;;;;;;8.27;3.03;;;;;;;4.48;58.39;99091.47;10344801;28;20855;-60
2023/04/14 23:35:23;;;;;;;7.05;2.80;;;;;;;4.45;59.34;99096.81;10347678;28;20075;-60